createdAt,value
2024-04-12T00:00:41.661Z,9.04
2024-04-12T00:02:46.868Z,9.05
2024-04-12T00:03:47.343Z,9.09
2024-04-12T00:04:47.848Z,9.09
2024-04-12T00:05:48.213Z,9.07
2024-04-12T00:06:50.108Z,9.08
2024-04-12T00:07:48.885Z,9.09
2024-04-12T00:08:50.028Z,9.13
2024-04-12T00:09:49.832Z,9.13
2024-04-12T00:10:50.069Z,9.11
2024-04-12T00:11:52.202Z,9.1
2024-04-12T00:12:50.971Z,9.1
2024-04-12T00:13:54.252Z,9.08
2024-04-12T00:14:51.756Z,9.13
2024-04-12T00:15:52.239Z,9.12
2024-04-12T00:16:52.625Z,9.11
2024-04-12T00:17:52.900Z,9.12
2024-04-12T00:18:53.876Z,9.1
2024-04-12T00:19:53.965Z,9.1
2024-04-12T00:21:00.158Z,9.13
2024-04-12T00:21:57.713Z,9.12
2024-04-12T00:22:58.100Z,9.12
2024-04-12T00:23:59.015Z,9.14
2024-04-12T00:24:59.014Z,9.12
2024-04-12T00:25:59.642Z,9.06
2024-04-12T00:27:00.437Z,9.08
2024-04-12T00:28:00.497Z,9.05
2024-04-12T00:29:00.478Z,9.09
2024-04-12T00:30:01.063Z,9.08
2024-04-12T00:31:05.099Z,9.05
2024-04-12T00:32:06.925Z,9.03
2024-04-12T00:33:05.328Z,9.01
2024-04-12T00:34:04.930Z,8.99
2024-04-12T00:35:05.742Z,9.04
2024-04-12T00:36:06.950Z,9.05
2024-04-12T00:37:08.140Z,9.09
2024-04-12T00:38:07.584Z,9.1
2024-04-12T00:39:07.035Z,9.09
2024-04-12T00:40:09.599Z,9.12
2024-04-12T00:41:08.555Z,9.06
2024-04-12T00:42:09.940Z,9.06
2024-04-12T00:43:11.952Z,9.09
2024-04-12T00:44:11.030Z,9.04
2024-04-12T00:45:09.968Z,9.08
2024-04-12T00:46:10.953Z,9.08
2024-04-12T00:47:14.146Z,9.07
2024-04-12T00:48:12.879Z,9.08
2024-04-12T00:49:12.090Z,9.14
2024-04-12T00:50:12.556Z,9.15
2024-04-12T00:51:15.083Z,9.15
2024-04-12T00:52:13.359Z,9.17
2024-04-12T00:53:14.553Z,9.17
2024-04-12T00:54:14.070Z,9.17
2024-04-12T00:55:14.393Z,9.18
2024-04-12T00:56:17.970Z,9.18
2024-04-12T00:57:15.533Z,9.21
2024-04-12T00:58:16.621Z,9.24
2024-04-12T00:59:16.650Z,9.22
2024-04-12T01:00:17.070Z,9.2
2024-04-12T01:01:17.596Z,9.2
2024-04-12T01:02:17.618Z,9.18
2024-04-12T01:03:18.740Z,9.13
2024-04-12T01:04:18.353Z,9.19
2024-04-12T01:05:20.701Z,9.17
2024-04-12T01:06:27.275Z,9.21
2024-04-12T01:07:19.905Z,9.26
2024-04-12T01:08:20.205Z,9.21
2024-04-12T01:09:20.512Z,9.25
2024-04-12T01:10:22.173Z,9.29
2024-04-12T01:11:22.536Z,9.26
2024-04-12T01:12:21.974Z,9.24
2024-04-12T01:13:22.329Z,9.26
2024-04-12T01:14:22.601Z,9.24
2024-04-12T01:15:24.036Z,9.23
2024-04-12T01:16:23.550Z,9.25
2024-04-12T01:17:23.771Z,9.28
2024-04-12T01:18:24.384Z,9.26
2024-04-12T01:19:24.695Z,9.22
2024-04-12T01:20:24.884Z,9.27
2024-04-12T01:21:25.842Z,9.3
2024-04-12T01:22:25.848Z,9.32
2024-04-12T01:23:26.244Z,9.32
2024-04-12T01:24:26.464Z,9.34
2024-04-12T01:25:28.015Z,9.36
2024-04-12T01:26:28.015Z,9.33
2024-04-12T01:27:27.822Z,9.33
2024-04-12T01:28:28.321Z,9.34
2024-04-12T01:29:28.853Z,9.36
2024-04-12T01:30:29.165Z,9.34
2024-04-12T01:31:29.473Z,9.32
2024-04-12T01:32:29.844Z,9.36
2024-04-12T01:33:30.637Z,9.37
2024-04-12T01:34:31.354Z,9.4
2024-04-12T01:35:31.267Z,9.4
2024-04-12T01:36:34.573Z,9.37
2024-04-12T01:37:32.123Z,9.37
2024-04-12T01:38:33.584Z,9.38
2024-04-12T01:39:33.011Z,9.4
2024-04-12T01:40:33.222Z,9.38
2024-04-12T01:41:34.290Z,9.39
2024-04-12T01:42:34.052Z,9.42
2024-04-12T01:43:35.703Z,9.42
2024-04-12T01:44:34.948Z,9.42
2024-04-12T01:45:35.407Z,9.41
2024-04-12T01:46:36.401Z,9.42
2024-04-12T01:47:36.554Z,9.38
2024-04-12T01:48:37.505Z,9.44
2024-04-12T01:49:36.870Z,9.46
2024-04-12T01:50:37.402Z,9.48
2024-04-12T01:51:38.624Z,9.47
2024-04-12T01:52:38.118Z,9.45
2024-04-12T01:53:39.216Z,9.47
2024-04-12T01:54:39.059Z,9.52
2024-04-12T01:55:39.487Z,9.52
2024-04-12T01:56:40.116Z,9.52
2024-04-12T01:57:40.300Z,9.5
2024-04-12T01:58:41.319Z,9.5
2024-04-12T01:59:41.215Z,9.48
2024-04-12T02:00:41.383Z,9.5
2024-04-12T02:01:42.367Z,9.51
2024-04-12T02:02:42.452Z,9.53
2024-04-12T02:03:43.318Z,9.51
2024-04-12T02:04:43.011Z,9.52
2024-04-12T02:05:43.547Z,9.55
2024-04-12T02:06:44.266Z,9.56
2024-04-12T02:07:44.462Z,9.56
2024-04-12T02:08:45.040Z,9.56
2024-04-12T02:09:45.915Z,9.6
2024-04-12T02:10:46.640Z,9.64
2024-04-12T02:11:46.844Z,9.62
2024-04-12T02:12:46.233Z,9.56
2024-04-12T02:13:46.772Z,9.59
2024-04-12T02:14:47.085Z,9.59
2024-04-12T02:15:52.230Z,9.6
2024-04-12T02:16:49.865Z,9.57
2024-04-12T02:17:53.724Z,9.58
2024-04-12T02:18:51.454Z,9.62
2024-04-12T02:19:51.816Z,9.59
2024-04-12T02:20:54.616Z,9.62
2024-04-12T02:21:52.538Z,9.63
2024-04-12T02:22:53.289Z,9.65
2024-04-12T02:23:53.420Z,9.64
2024-04-12T02:24:53.762Z,9.65
2024-04-12T02:25:58.626Z,9.65
2024-04-12T02:26:56.200Z,9.64
2024-04-12T02:27:56.624Z,9.63
2024-04-12T02:28:56.895Z,9.58
2024-04-12T02:29:57.327Z,9.62
2024-04-12T02:30:58.025Z,9.63
2024-04-12T02:31:58.375Z,9.63
2024-04-12T02:32:58.844Z,9.61
2024-04-12T02:34:00.718Z,9.63
2024-04-12T02:34:59.491Z,9.57
2024-04-12T02:36:12.491Z,9.62
2024-04-12T02:37:00.021Z,9.61
2024-04-12T02:38:00.638Z,9.63
2024-04-12T02:39:01.393Z,9.63
2024-04-12T02:40:02.803Z,9.63
2024-04-12T02:41:01.594Z,9.63
2024-04-12T02:42:02.358Z,9.64
2024-04-12T02:43:02.933Z,9.66
2024-04-12T02:44:04.787Z,9.69
2024-04-12T02:45:03.374Z,9.65
2024-04-12T02:46:04.283Z,9.63
2024-04-12T02:47:04.513Z,9.63
2024-04-12T02:48:05.751Z,9.62
2024-04-12T02:49:05.123Z,9.64
2024-04-12T02:50:06.230Z,9.61
2024-04-12T02:51:05.828Z,9.62
2024-04-12T02:52:07.893Z,9.61
2024-04-12T02:53:06.573Z,9.61
2024-04-12T02:54:07.026Z,9.62
2024-04-12T02:55:08.437Z,9.6
2024-04-12T02:56:09.860Z,9.6
2024-04-12T02:57:08.318Z,9.58
2024-04-12T02:58:08.774Z,9.61
2024-04-12T02:59:08.984Z,9.65
2024-04-12T03:00:10.864Z,9.64
2024-04-12T03:02:13.566Z,9.63
2024-04-12T03:03:12.456Z,9.66
2024-04-12T03:04:12.581Z,9.64
2024-04-12T03:05:13.240Z,9.61
2024-04-12T03:06:14.768Z,9.61
2024-04-12T03:07:13.860Z,9.6
2024-04-12T03:08:14.165Z,9.62
2024-04-12T03:09:14.714Z,9.63
2024-04-12T03:10:15.396Z,9.6
2024-04-12T03:11:17.465Z,9.6
2024-04-12T03:12:15.912Z,9.6
2024-04-12T03:13:17.468Z,9.61
2024-04-12T03:14:16.762Z,9.56
2024-04-12T03:15:17.074Z,9.58
2024-04-12T03:16:19.047Z,9.6
2024-04-12T03:17:17.912Z,9.62
2024-04-12T03:18:18.379Z,9.62
2024-04-12T03:19:18.836Z,9.62
2024-04-12T03:20:19.166Z,9.62
2024-04-12T03:21:21.328Z,9.62
2024-04-12T03:22:19.880Z,9.58
2024-04-12T03:23:23.182Z,9.59
2024-04-12T03:24:21.282Z,9.57
2024-04-12T03:25:21.135Z,9.6
2024-04-12T03:26:22.542Z,9.58
2024-04-12T03:27:22.276Z,9.55
2024-04-12T03:28:22.374Z,9.56
2024-04-12T03:29:23.007Z,9.58
2024-04-12T03:30:23.112Z,9.59
2024-04-12T03:31:24.035Z,9.57
2024-04-12T03:32:24.097Z,9.57
2024-04-12T03:33:24.385Z,9.56
2024-04-12T03:34:24.948Z,9.56
2024-04-12T03:35:25.192Z,9.55
2024-04-12T03:36:26.844Z,9.55
2024-04-12T03:37:28.787Z,9.53
2024-04-12T03:38:26.546Z,9.53
2024-04-12T03:39:27.128Z,9.56
2024-04-12T03:40:27.576Z,9.59
2024-04-12T03:41:29.123Z,9.58
2024-04-12T03:42:28.111Z,9.56
2024-04-12T03:43:28.819Z,9.56
2024-04-12T03:44:29.462Z,9.53
2024-04-12T03:45:32.132Z,9.54
2024-04-12T03:46:29.667Z,9.53
2024-04-12T03:47:30.239Z,9.51
2024-04-12T03:48:30.646Z,9.52
2024-04-12T03:49:30.921Z,9.54
2024-04-12T03:50:33.115Z,9.54
2024-04-12T03:51:31.641Z,9.45
2024-04-12T03:52:32.170Z,9.51
2024-04-12T03:53:32.474Z,9.5
2024-04-12T03:54:32.999Z,9.51
2024-04-12T03:55:33.454Z,9.5
2024-04-12T03:56:33.797Z,9.54
2024-04-12T03:57:34.149Z,9.56
2024-04-12T03:58:34.658Z,9.54
2024-04-12T03:59:35.690Z,9.53
2024-04-12T04:00:35.599Z,9.48
2024-04-12T04:01:39.926Z,9.52
2024-04-12T04:02:38.198Z,9.5
2024-04-12T04:03:38.002Z,9.55
2024-04-12T04:04:39.628Z,9.57
2024-04-12T04:05:38.957Z,9.56
2024-04-12T04:06:39.139Z,9.54
2024-04-12T04:07:39.573Z,9.55
2024-04-12T04:08:42.449Z,9.53
2024-04-12T04:09:40.364Z,9.53
2024-04-12T04:10:40.781Z,9.52
2024-04-12T04:11:41.217Z,9.51
2024-04-12T04:12:42.452Z,9.54
2024-04-12T04:13:41.827Z,9.54
2024-04-12T04:14:43.576Z,9.57
2024-04-12T04:15:51.697Z,9.57
2024-04-12T04:16:44.310Z,9.56
2024-04-12T04:17:47.803Z,9.57
2024-04-12T04:18:46.837Z,9.56
2024-04-12T04:19:46.167Z,9.55
2024-04-12T04:20:46.517Z,9.53
2024-04-12T04:21:46.928Z,9.56
2024-04-12T04:22:47.323Z,9.52
2024-04-12T04:23:47.459Z,9.49
2024-04-12T04:24:47.871Z,9.49
2024-04-12T04:25:48.475Z,9.49
2024-04-12T04:26:48.699Z,9.47
2024-04-12T04:27:49.227Z,9.48
2024-04-12T04:28:49.521Z,9.5
2024-04-12T04:29:50.890Z,9.51
2024-04-12T04:30:50.340Z,9.5
2024-04-12T04:31:53.459Z,9.51
2024-04-12T04:32:51.126Z,9.52
2024-04-12T04:33:52.307Z,9.52
2024-04-12T04:34:52.108Z,9.48
2024-04-12T04:35:52.457Z,9.47
2024-04-12T04:36:54.681Z,9.5
2024-04-12T04:37:53.265Z,9.52
2024-04-12T04:38:53.791Z,9.5
2024-04-12T04:39:54.800Z,9.51
2024-04-12T04:41:00.345Z,9.44
2024-04-12T04:41:58.252Z,9.45
2024-04-12T04:42:58.699Z,9.5
2024-04-12T04:43:58.844Z,9.51
2024-04-12T04:44:59.333Z,9.5
2024-04-12T04:46:00.163Z,9.49
2024-04-12T04:46:59.882Z,9.51
2024-04-12T04:48:00.458Z,9.5
2024-04-12T04:49:00.828Z,9.48
2024-04-12T04:50:01.222Z,9.48
2024-04-12T04:51:01.606Z,9.46
2024-04-12T04:52:01.973Z,9.48
2024-04-12T04:53:02.278Z,9.44
2024-04-12T04:54:02.827Z,9.45
2024-04-12T04:55:03.721Z,9.48
2024-04-12T04:56:04.247Z,9.48
2024-04-12T04:57:04.855Z,9.47
2024-04-12T04:58:04.862Z,9.48
2024-04-12T04:59:04.973Z,9.49
2024-04-12T05:00:05.839Z,9.5
2024-04-12T05:01:05.549Z,9.46
2024-04-12T05:02:06.169Z,9.43
2024-04-12T05:03:06.602Z,9.45
2024-04-12T05:04:06.790Z,9.46
2024-04-12T05:05:07.064Z,9.46
2024-04-12T05:06:07.766Z,9.47
2024-04-12T05:07:08.004Z,9.48
2024-04-12T05:08:08.418Z,9.5
2024-04-12T05:09:09.055Z,9.52
2024-04-12T05:10:09.327Z,9.51
2024-04-12T05:11:09.640Z,9.5
2024-04-12T05:12:10.034Z,9.49
2024-04-12T05:13:10.607Z,9.49
2024-04-12T05:14:11.219Z,9.53
2024-04-12T05:15:11.289Z,9.52
2024-04-12T05:16:11.763Z,9.56
2024-04-12T05:17:12.074Z,9.59
2024-04-12T05:18:12.747Z,9.52
2024-04-12T05:19:12.884Z,9.5
2024-04-12T05:20:13.318Z,9.47
2024-04-12T05:21:14.069Z,9.49
2024-04-12T05:22:15.481Z,9.52
2024-04-12T05:23:16.374Z,9.57
2024-04-12T05:24:15.010Z,9.56
2024-04-12T05:25:16.119Z,9.55
2024-04-12T05:26:16.016Z,9.57
2024-04-12T05:27:16.222Z,9.6
2024-04-12T05:28:16.734Z,9.6
2024-04-12T05:29:16.957Z,9.56
2024-04-12T05:30:17.536Z,9.59
2024-04-12T05:31:17.782Z,9.63
2024-04-12T05:32:18.304Z,9.58
2024-04-12T05:33:18.849Z,9.56
2024-04-12T05:34:18.998Z,9.61
2024-04-12T05:35:19.444Z,9.64
2024-04-12T05:36:19.846Z,9.63
2024-04-12T05:37:20.477Z,9.61
2024-04-12T05:38:21.105Z,9.64
2024-04-12T05:39:21.132Z,9.62
2024-04-12T05:40:21.549Z,9.61
2024-04-12T05:41:22.169Z,9.64
2024-04-12T05:42:22.470Z,9.68
2024-04-12T05:43:23.400Z,9.69
2024-04-12T05:44:23.922Z,9.68
2024-04-12T05:45:23.742Z,9.7
2024-04-12T05:46:24.126Z,9.72
2024-04-12T05:47:24.427Z,9.7
2024-04-12T05:48:26.254Z,9.73
2024-04-12T05:49:25.152Z,9.71
2024-04-12T05:50:25.768Z,9.69
2024-04-12T05:51:26.324Z,9.72
2024-04-12T05:52:26.324Z,9.71
2024-04-12T05:53:28.062Z,9.71
2024-04-12T05:54:27.348Z,9.71
2024-04-12T05:55:27.682Z,9.73
2024-04-12T05:56:28.119Z,9.75
2024-04-12T05:57:28.502Z,9.71
2024-04-12T05:58:29.027Z,9.74
2024-04-12T05:59:29.570Z,9.82
2024-04-12T06:00:30.937Z,9.83
2024-04-12T06:01:30.291Z,9.78
2024-04-12T06:02:30.655Z,9.79
2024-04-12T06:03:30.911Z,9.8
2024-04-12T06:04:31.917Z,9.77
2024-04-12T06:05:31.739Z,9.72
2024-04-12T06:06:32.366Z,9.75
2024-04-12T06:07:33.279Z,9.8
2024-04-12T06:08:32.883Z,9.84
2024-04-12T06:09:33.551Z,9.87
2024-04-12T06:10:33.824Z,9.85
2024-04-12T06:11:34.295Z,9.84
2024-04-12T06:12:34.489Z,9.81
2024-04-12T06:13:35.057Z,9.81
2024-04-12T06:14:36.963Z,9.79
2024-04-12T06:15:37.155Z,9.83
2024-04-12T06:16:36.126Z,9.81
2024-04-12T06:17:36.709Z,9.84
2024-04-12T06:18:37.087Z,9.88
2024-04-12T06:19:40.318Z,9.85
2024-04-12T06:20:38.290Z,9.9
2024-04-12T06:21:38.291Z,9.94
2024-04-12T06:22:38.606Z,9.97
2024-04-12T06:23:39.257Z,9.94
2024-04-12T06:24:39.809Z,9.93
2024-04-12T06:25:42.324Z,9.85
2024-04-12T06:26:40.625Z,9.84
2024-04-12T06:27:41.918Z,9.87
2024-04-12T06:28:41.089Z,9.92
2024-04-12T06:29:43.611Z,9.93
2024-04-12T06:30:48.897Z,9.86
2024-04-12T06:31:47.265Z,9.88
2024-04-12T06:32:47.033Z,9.9
2024-04-12T06:33:51.019Z,9.87
2024-04-12T06:34:48.939Z,9.88
2024-04-12T06:35:58.195Z,9.85
2024-04-12T06:36:52.239Z,9.85
2024-04-12T06:37:54.112Z,9.88
2024-04-12T06:38:52.342Z,9.85
2024-04-12T06:39:52.744Z,9.88
2024-04-12T06:40:53.880Z,9.83
2024-04-12T06:41:57.077Z,9.83
2024-04-12T06:42:54.495Z,9.89
2024-04-12T06:43:55.042Z,9.89
2024-04-12T06:44:55.567Z,9.88
2024-04-12T06:46:02.787Z,9.91
2024-04-12T06:47:00.748Z,9.92
2024-04-12T06:48:00.846Z,9.92
2024-04-12T06:49:02.320Z,9.94
2024-04-12T06:50:01.742Z,9.97
2024-04-12T06:51:02.402Z,9.97
2024-04-12T06:52:02.472Z,10.02
2024-04-12T06:53:02.655Z,10.02
2024-04-12T06:54:04.568Z,10.06
2024-04-12T06:55:04.175Z,10.05
2024-04-12T06:56:05.659Z,9.99
2024-04-12T06:57:08.397Z,9.95
2024-04-12T06:58:05.979Z,9.97
2024-04-12T06:59:06.390Z,9.96
2024-04-12T07:00:08.060Z,9.96
2024-04-12T07:01:07.551Z,9.98
2024-04-12T07:02:10.299Z,9.99
2024-04-12T07:03:08.040Z,10.06
2024-04-12T07:04:08.788Z,10.09
2024-04-12T07:05:08.766Z,10.07
2024-04-12T07:06:09.228Z,10.04
2024-04-12T07:07:09.716Z,10.04
2024-04-12T07:08:10.162Z,10.06
2024-04-12T07:09:10.738Z,10.07
2024-04-12T07:10:11.858Z,10.09
2024-04-12T07:11:13.952Z,10.11
2024-04-12T07:12:11.752Z,10.12
2024-04-12T07:13:12.115Z,10.12
2024-04-12T07:14:12.520Z,10.07
2024-04-12T07:15:13.506Z,10.12
2024-04-12T07:16:13.383Z,10.13
2024-04-12T07:17:15.489Z,10.15
2024-04-12T07:18:14.414Z,10.14
2024-04-12T07:19:16.265Z,10.1
2024-04-12T07:20:15.834Z,10.09
2024-04-12T07:21:15.472Z,10.11
2024-04-12T07:22:15.887Z,10.17
2024-04-12T07:23:17.215Z,10.11
2024-04-12T07:24:16.862Z,10.12
2024-04-12T07:25:17.524Z,10.11
2024-04-12T07:26:17.625Z,10.18
2024-04-12T07:27:21.981Z,10.12
2024-04-12T07:28:19.599Z,10.05
2024-04-12T07:29:19.921Z,10.06
2024-04-12T07:30:20.487Z,10.12
2024-04-12T07:31:20.634Z,10.23
2024-04-12T07:32:21.713Z,10.19
2024-04-12T07:33:21.579Z,10.24
2024-04-12T07:34:22.074Z,10.31
2024-04-12T07:35:22.447Z,10.38
2024-04-12T07:36:25.664Z,10.39
2024-04-12T07:37:24.386Z,10.32
2024-04-12T07:38:23.743Z,10.35
2024-04-12T07:39:23.981Z,10.29
2024-04-12T07:40:24.496Z,10.32
2024-04-12T07:41:24.818Z,10.37
2024-04-12T07:42:25.217Z,10.41
2024-04-12T07:43:25.748Z,10.37
2024-04-12T07:44:26.130Z,10.36
2024-04-12T07:45:26.969Z,10.41
2024-04-12T07:46:27.503Z,10.47
2024-04-12T07:47:28.213Z,10.47
2024-04-12T07:48:31.869Z,10.58
2024-04-12T07:49:31.412Z,10.63
2024-04-12T07:50:31.923Z,10.48
2024-04-12T07:51:32.341Z,10.48
2024-04-12T07:52:32.663Z,10.47
2024-04-12T07:53:33.157Z,10.5
2024-04-12T07:54:33.799Z,10.57
2024-04-12T07:55:34.140Z,10.59
2024-04-12T07:56:34.534Z,10.6
2024-04-12T07:57:34.937Z,10.64
2024-04-12T07:58:36.803Z,10.54
2024-04-12T07:59:35.590Z,10.51
2024-04-12T08:00:42.364Z,10.43
2024-04-12T08:01:39.949Z,10.57
2024-04-12T08:02:40.379Z,10.62
2024-04-12T08:03:41.222Z,10.6
2024-04-12T08:04:42.484Z,10.51
2024-04-12T08:05:41.895Z,10.47
2024-04-12T08:06:41.964Z,10.44
2024-04-12T08:07:42.390Z,10.43
2024-04-12T08:08:42.826Z,10.58
2024-04-12T08:09:45.162Z,10.66
2024-04-12T08:10:44.185Z,10.8
2024-04-12T08:11:45.635Z,10.76
2024-04-12T08:12:45.086Z,10.74
2024-04-12T08:13:45.727Z,10.75
2024-04-12T08:14:46.956Z,10.83
2024-04-12T08:15:49.204Z,10.96
2024-04-12T08:16:47.370Z,10.82
2024-04-12T08:17:47.266Z,10.79
2024-04-12T08:18:47.697Z,10.9
2024-04-12T08:19:48.241Z,10.96
2024-04-12T08:20:48.563Z,11.01
2024-04-12T08:21:50.983Z,11.04
2024-04-12T08:22:49.349Z,10.73
2024-04-12T08:23:49.913Z,10.69
2024-04-12T08:24:50.205Z,10.76
2024-04-12T08:25:51.209Z,10.88
2024-04-12T08:26:59.837Z,10.9
2024-04-12T08:27:52.386Z,10.93
2024-04-12T08:28:52.988Z,10.89
2024-04-12T08:29:53.670Z,10.88
2024-04-12T08:30:53.694Z,10.83
2024-04-12T08:32:01.874Z,10.76
2024-04-12T08:32:55.017Z,10.83
2024-04-12T08:33:55.343Z,10.82
2024-04-12T08:34:56.301Z,10.76
2024-04-12T08:35:55.822Z,10.73
2024-04-12T08:36:56.305Z,10.83
2024-04-12T08:37:56.838Z,10.94
2024-04-12T08:38:56.920Z,10.77
2024-04-12T08:39:59.082Z,10.84
2024-04-12T08:41:06.048Z,10.92
2024-04-12T08:42:01.976Z,10.93
2024-04-12T08:43:02.816Z,10.91
2024-04-12T08:44:00.471Z,10.77
2024-04-12T08:45:02.092Z,10.9
2024-04-12T08:46:02.924Z,11.02
2024-04-12T08:47:03.163Z,11
2024-04-12T08:48:02.526Z,11.2
2024-04-12T08:49:03.670Z,11.07
2024-04-12T08:50:08.242Z,11.11
2024-04-12T08:51:10.624Z,11.19
2024-04-12T08:52:09.100Z,11.28
2024-04-12T08:53:11.660Z,11.25
2024-04-12T08:54:10.928Z,11.12
2024-04-12T08:55:14.797Z,11.2
2024-04-12T08:56:14.469Z,11.37
2024-04-12T08:57:15.022Z,11.27
2024-04-12T08:58:15.299Z,11.26
2024-04-12T08:59:15.698Z,11.47
2024-04-12T09:00:16.877Z,11.41
2024-04-12T09:01:19.411Z,11.26
2024-04-12T09:02:22.704Z,11.09
2024-04-12T09:03:21.225Z,11.19
2024-04-12T09:04:23.413Z,11.04
2024-04-12T09:05:22.098Z,11.03
2024-04-12T09:06:21.935Z,11.15
2024-04-12T09:07:21.895Z,11.13
2024-04-12T09:08:22.640Z,10.91
2024-04-12T09:09:23.360Z,10.98
2024-04-12T09:10:23.563Z,10.96
2024-04-12T09:11:23.800Z,11.09
2024-04-12T09:12:24.315Z,11.1
2024-04-12T09:13:24.503Z,11.14
2024-04-12T09:14:26.869Z,11.25
2024-04-12T09:15:27.084Z,11.18
2024-04-12T09:16:26.884Z,11.16
2024-04-12T09:17:27.576Z,11.17
2024-04-12T09:18:28.998Z,11.17
2024-04-12T09:19:28.638Z,11.12
2024-04-12T09:20:34.804Z,11.23
2024-04-12T09:21:32.462Z,11.23
2024-04-12T09:22:33.465Z,11.47
2024-04-12T09:23:34.352Z,11.43
2024-04-12T09:24:34.508Z,11.49
2024-04-12T09:25:34.844Z,11.67
2024-04-12T09:26:35.338Z,11.69
2024-04-12T09:27:36.690Z,11.56
2024-04-12T09:28:37.102Z,11.62
2024-04-12T09:29:37.357Z,11.77
2024-04-12T09:30:36.925Z,11.62
2024-04-12T09:31:37.440Z,11.7
2024-04-12T09:32:41.803Z,11.75
2024-04-12T09:33:43.037Z,11.7
2024-04-12T09:34:42.983Z,11.78
2024-04-12T09:35:45.065Z,11.89
2024-04-12T09:36:44.222Z,11.97
2024-04-12T09:37:43.830Z,11.91
2024-04-12T09:38:43.425Z,11.74
2024-04-12T09:39:44.151Z,11.89
2024-04-12T09:40:45.379Z,11.73
2024-04-12T09:41:46.436Z,11.77
2024-04-12T09:42:48.075Z,11.87
2024-04-12T09:43:46.338Z,11.88
2024-04-12T09:44:50.314Z,11.79
2024-04-12T09:45:48.178Z,11.82
2024-04-12T09:46:48.751Z,12.18
2024-04-12T09:47:53.075Z,12.33
2024-04-12T09:48:54.522Z,12.39
2024-04-12T09:49:53.316Z,12.37
2024-04-12T09:50:52.668Z,12.38
2024-04-12T09:51:53.241Z,11.98
2024-04-12T09:52:53.461Z,11.77
2024-04-12T09:53:56.417Z,11.68
2024-04-12T09:54:54.477Z,11.47
2024-04-12T09:55:55.009Z,11.48
2024-04-12T09:58:05.659Z,11.58
2024-04-12T09:59:05.291Z,11.74
2024-04-12T10:00:07.595Z,11.85
2024-04-12T10:01:06.122Z,11.96
2024-04-12T10:02:07.651Z,11.97
2024-04-12T10:03:08.496Z,11.81
2024-04-12T10:04:07.974Z,11.48
2024-04-12T10:05:09.490Z,11.6
2024-04-12T10:06:10.123Z,11.91
2024-04-12T10:07:09.426Z,12.19
2024-04-12T10:08:14.744Z,12.14
2024-04-12T10:09:14.100Z,12.08
2024-04-12T10:10:14.728Z,12.1
2024-04-12T10:11:13.608Z,12.14
2024-04-12T10:12:16.879Z,11.94
2024-04-12T10:13:15.990Z,11.88
2024-04-12T10:14:16.004Z,11.8
2024-04-12T10:15:18.529Z,11.91
2024-04-12T10:16:20.728Z,11.78
2024-04-12T10:17:23.951Z,11.6
2024-04-12T10:18:27.871Z,11.77
2024-04-12T10:19:25.484Z,12.02
2024-04-12T10:20:25.894Z,12.26
2024-04-12T10:21:26.500Z,12.34
2024-04-12T10:22:26.582Z,12.19
2024-04-12T10:23:33.280Z,12.28
2024-04-12T10:24:30.702Z,11.95
2024-04-12T10:25:37.805Z,11.93
2024-04-12T10:26:38.669Z,12.15
2024-04-12T10:27:39.553Z,12
2024-04-12T10:28:40.574Z,11.94
2024-04-12T10:29:38.308Z,11.84
2024-04-12T10:30:45.403Z,11.88
2024-04-12T10:31:42.745Z,11.83
2024-04-12T10:32:46.143Z,11.95
2024-04-12T10:33:46.450Z,12.04
2024-04-12T10:34:46.150Z,12.09
2024-04-12T10:35:46.662Z,12.05
2024-04-12T10:36:46.791Z,12.08
2024-04-12T10:37:48.027Z,12.17
2024-04-12T10:38:50.283Z,12.3
2024-04-12T10:39:47.920Z,11.93
2024-04-12T10:40:48.966Z,11.83
2024-04-12T10:41:49.007Z,11.73
2024-04-12T10:42:53.552Z,11.93
2024-04-12T10:43:52.460Z,12.06
2024-04-12T10:44:52.885Z,12.33
2024-04-12T10:45:51.754Z,12.61
2024-04-12T10:46:53.083Z,12.46
2024-04-12T10:47:55.002Z,12.29
2024-04-12T10:48:53.220Z,12.3
2024-04-12T10:49:53.820Z,12.39
2024-04-12T10:50:54.422Z,12.08
2024-04-12T10:51:54.611Z,12.09
2024-04-12T10:52:54.983Z,12.21
2024-04-12T10:53:55.563Z,12.58
2024-04-12T10:55:03.392Z,12.94
2024-04-12T10:56:00.813Z,13.12
2024-04-12T10:57:02.857Z,13.01
2024-04-12T10:58:01.664Z,13.1
2024-04-12T10:59:02.377Z,13.08
2024-04-12T11:00:03.192Z,12.94
2024-04-12T11:01:03.752Z,12.9
2024-04-12T11:02:04.040Z,12.64
2024-04-12T11:03:08.992Z,12.64
2024-04-12T11:04:07.543Z,12.54
2024-04-12T11:05:07.893Z,12.27
2024-04-12T11:06:09.441Z,12.45
2024-04-12T11:07:08.756Z,12.62
2024-04-12T11:08:17.049Z,13.09
2024-04-12T11:09:15.116Z,13.03
2024-04-12T11:10:13.000Z,12.85
2024-04-12T11:11:13.423Z,12.88
2024-04-12T11:12:14.862Z,13.1
2024-04-12T11:13:14.679Z,13.13
2024-04-12T11:14:14.711Z,12.99
2024-04-12T11:15:15.949Z,13
2024-04-12T11:16:15.889Z,12.67
2024-04-12T11:17:18.985Z,12.8
2024-04-12T11:18:16.754Z,12.77
2024-04-12T11:19:17.083Z,12.73
2024-04-12T11:20:17.759Z,12.71
2024-04-12T11:21:17.766Z,12.67
2024-04-12T11:22:25.578Z,12.45
2024-04-12T11:23:23.035Z,12.56
2024-04-12T11:24:23.542Z,12.72
2024-04-12T11:25:24.266Z,12.91
2024-04-12T11:26:24.783Z,12.71
2024-04-12T11:27:24.949Z,12.61
2024-04-12T11:28:25.547Z,12.73
2024-04-12T11:29:25.845Z,12.92
2024-04-12T11:30:26.358Z,13.01
2024-04-12T11:31:26.756Z,12.98
2024-04-12T11:32:27.069Z,12.8
2024-04-12T11:33:33.899Z,12.58
2024-04-12T11:34:32.225Z,12.7
2024-04-12T11:35:35.212Z,12.7
2024-04-12T11:36:34.604Z,12.85
2024-04-12T11:37:35.190Z,12.83
2024-04-12T11:38:35.742Z,12.92
2024-04-12T11:39:37.491Z,12.94
2024-04-12T11:40:38.921Z,12.99
2024-04-12T11:41:36.465Z,13.23
2024-04-12T11:42:39.723Z,13.22
2024-04-12T11:43:37.700Z,13.26
2024-04-12T11:44:38.308Z,13.23
2024-04-12T11:45:38.444Z,13.42
2024-04-12T11:46:38.861Z,13.42
2024-04-12T11:47:39.426Z,13.48
2024-04-12T11:48:39.732Z,13.58
2024-04-12T11:49:40.078Z,13.68
2024-04-12T11:50:40.720Z,13.89
2024-04-12T11:51:41.540Z,13.68
2024-04-12T11:52:41.638Z,13.65
2024-04-12T11:53:42.590Z,13.46
2024-04-12T11:54:43.090Z,13.31
2024-04-12T11:55:42.809Z,13.56
2024-04-12T11:56:43.138Z,13.72
2024-04-12T11:57:43.617Z,13.69
2024-04-12T11:58:44.000Z,13.76
2024-04-12T11:59:44.614Z,13.68
2024-04-12T12:00:45.103Z,13.66
2024-04-12T12:01:45.825Z,13.72
2024-04-12T12:02:46.620Z,13.95
2024-04-12T12:03:47.270Z,13.97
2024-04-12T12:04:47.677Z,14.02
2024-04-12T12:05:47.956Z,14.23
2024-04-12T12:06:48.826Z,14.11
2024-04-12T12:07:48.826Z,14.28
2024-04-12T12:08:50.131Z,14.27
2024-04-12T12:09:50.061Z,14.28
2024-04-12T12:10:50.163Z,14.26
2024-04-12T12:11:51.157Z,14.06
2024-04-12T12:12:51.071Z,14.02
2024-04-12T12:13:52.032Z,14.01
2024-04-12T12:14:54.737Z,13.92
2024-04-12T12:15:52.449Z,13.81
2024-04-12T12:16:52.813Z,13.82
2024-04-12T12:17:53.349Z,13.9
2024-04-12T12:18:53.855Z,13.94
2024-04-12T12:19:54.341Z,13.94
2024-04-12T12:20:56.511Z,13.96
2024-04-12T12:21:56.396Z,14
2024-04-12T12:22:56.203Z,13.94
2024-04-12T12:23:57.256Z,14.01
2024-04-12T12:24:57.442Z,14.15
2024-04-12T12:25:57.851Z,13.93
2024-04-12T12:26:58.185Z,14.12
2024-04-12T12:27:59.104Z,14.35
2024-04-12T12:28:59.949Z,14.52
2024-04-12T12:30:00.220Z,14.49
2024-04-12T12:31:00.538Z,14.41
2024-04-12T12:32:01.652Z,14.57
2024-04-12T12:33:02.481Z,14.57
2024-04-12T12:34:02.427Z,14.68
2024-04-12T12:35:02.923Z,14.56
2024-04-12T12:36:04.052Z,14.45
2024-04-12T12:37:04.410Z,14.5
2024-04-12T12:38:06.487Z,14.67
2024-04-12T12:39:05.244Z,14.51
2024-04-12T12:40:08.905Z,14.51
2024-04-12T12:41:06.437Z,14.54
2024-04-12T12:42:07.520Z,14.6
2024-04-12T12:43:07.354Z,14.48
2024-04-12T12:44:07.799Z,14.38
2024-04-12T12:45:08.480Z,14.2
2024-04-12T12:46:09.238Z,14.19
2024-04-12T12:47:09.388Z,14.31
2024-04-12T12:48:19.170Z,14.34
2024-04-12T12:49:11.975Z,14.31
2024-04-12T12:50:13.161Z,14.27
2024-04-12T12:51:12.718Z,14.19
2024-04-12T12:52:13.785Z,14.17
2024-04-12T12:53:13.835Z,14.02
2024-04-12T12:54:14.167Z,14.1
2024-04-12T12:55:14.635Z,14.05
2024-04-12T12:56:15.140Z,13.95
2024-04-12T12:57:15.903Z,14.07
2024-04-12T12:58:16.076Z,14.08
2024-04-12T12:59:16.491Z,14.06
2024-04-12T13:00:17.994Z,14.02
2024-04-12T13:01:17.435Z,14.09
2024-04-12T13:02:17.850Z,13.97
2024-04-12T13:03:18.483Z,14.05
2024-04-12T13:04:18.936Z,14.1
2024-04-12T13:05:20.032Z,14.3
2024-04-12T13:06:19.652Z,14.27
2024-04-12T13:07:20.438Z,14.14
2024-04-12T13:08:20.871Z,14.1
2024-04-12T13:09:23.959Z,14.14
2024-04-12T13:10:24.559Z,14.13
2024-04-12T13:11:25.814Z,14.06
2024-04-12T13:12:23.883Z,13.95
2024-04-12T13:13:24.513Z,13.97
2024-04-12T13:14:24.490Z,13.98
2024-04-12T13:15:25.036Z,14.03
2024-04-12T13:16:28.175Z,14.11
2024-04-12T13:17:26.486Z,14.1
2024-04-12T13:18:28.566Z,14.08
2024-04-12T13:19:26.984Z,13.98
2024-04-12T13:20:27.589Z,13.87